Time;durP1;ratioP1;P1;durP2;ratioP2;P2;SDS_P1;SDS_P2;PMS_P1;PMS_P2;Temp;Humidity;BMP_temperature;BMP_pressure;BME280_temperature;BME280_humidity;BME280_pressure;Samples;Min_cycle;Max_cycle;Signal;HPM_P1;HPM_P2
2022/03/07 00:00:28;;;;;;;;;;;0.10;99.90;;;;;;5070785;28;20513;-73
2022/03/07 00:02:57;;;;;;;;;;;0.10;99.90;;;;;;5070698;28;19924;-73
2022/03/07 00:05:28;;;;;;;;;;;0.10;99.90;;;;;;5072197;28;19931;-73
2022/03/07 00:07:57;;;;;;;;;;;0.10;99.90;;;;;;5070808;28;19929;-73
2022/03/07 00:10:44;;;;;;;;;;;0.00;99.90;;;;;;5084148;28;19963;-73
2022/03/07 00:13:10;;;;;;;;;;;0.00;99.90;;;;;;5075658;28;20086;-73
2022/03/07 00:15:40;;;;;;;;;;;-0.10;99.90;;;;;;5071136;28;20481;-73
2022/03/07 00:18:06;;;;;;;;;;;-0.10;99.90;;;;;;5069474;28;20015;-74
2022/03/07 00:20:33;;;;;;;;;;;-0.20;99.90;;;;;;5072313;28;19924;-73
2022/03/07 00:23:01;;;;;;;;;;;-0.20;99.90;;;;;;5084649;28;20306;-73
2022/03/07 00:25:27;;;;;;;;;;;-0.30;99.90;;;;;;5072800;28;19964;-73
2022/03/07 00:27:54;;;;;;;;;;;-0.30;99.90;;;;;;5070811;28;20007;-73
2022/03/07 00:30:21;;;;;;;;;;;-0.30;99.90;;;;;;5071414;28;19928;-73
2022/03/07 00:32:48;;;;;;;;;;;-0.40;99.90;;;;;;5079411;28;20496;-73
2022/03/07 00:35:17;;;;;;;;;;;-0.50;99.90;;;;;;5082556;28;19970;-72
2022/03/07 00:37:46;;;;;;;;;;;-0.60;99.90;;;;;;5076841;28;19970;-73
2022/03/07 00:40:13;;;;;;;;;;;-0.60;99.90;;;;;;5071553;28;20786;-73
2022/03/07 00:42:40;;;;;;;;;;;-0.60;99.90;;;;;;5075185;28;19946;-73
2022/03/07 00:45:11;;;;;;;;;;;-0.60;99.90;;;;;;5068831;28;19982;-73
2022/03/07 00:47:37;;;;;;;;;;;-0.70;99.90;;;;;;5076409;28;20430;-72
2022/03/07 00:50:06;;;;;;;;;;;-0.80;99.90;;;;;;5081565;28;21423;-72
2022/03/07 00:52:33;;;;;;;;;;;-0.80;99.90;;;;;;5089238;28;19924;-72
2022/03/07 00:55:00;;;;;;;;;;;-0.90;99.90;;;;;;5074515;28;20007;-73
2022/03/07 00:57:27;;;;;;;;;;;-0.90;99.90;;;;;;5074594;28;20398;-72
2022/03/07 00:59:55;;;;;;;;;;;-0.90;99.90;;;;;;5075059;28;19924;-73
2022/03/07 01:02:22;;;;;;;;;;;-0.90;99.90;;;;;;5079532;28;19976;-72
2022/03/07 01:04:50;;;;;;;;;;;-0.90;99.90;;;;;;5076360;28;19928;-72
2022/03/07 01:07:17;;;;;;;;;;;-0.90;99.90;;;;;;5080910;28;19924;-72
2022/03/07 01:09:43;;;;;;;;;;;-0.90;99.90;;;;;;5087426;28;20011;-72
2022/03/07 01:12:11;;;;;;;;;;;-0.80;99.90;;;;;;5088276;28;19931;-72
2022/03/07 01:14:40;;;;;;;;;;;-0.90;99.90;;;;;;5074489;28;19924;-72
2022/03/07 01:17:06;;;;;;;;;;;-0.90;99.90;;;;;;5080407;28;19928;-72
2022/03/07 01:19:33;;;;;;;;;;;-0.80;99.90;;;;;;5074578;28;20486;-72
2022/03/07 01:22:00;;;;;;;;;;;-0.80;99.90;;;;;;5088986;28;19967;-73
2022/03/07 01:24:27;;;;;;;;;;;-0.70;99.90;;;;;;5087939;28;20035;-72
2022/03/07 01:26:53;;;;;;;;;;;-0.70;99.90;;;;;;5082116;28;20026;-72
2022/03/07 01:29:20;;;;;;;;;;;-0.70;99.90;;;;;;5074397;28;20015;-72
2022/03/07 01:31:47;;;;;;;;;;;-0.70;99.90;;;;;;5087725;28;20019;-72
2022/03/07 01:34:13;;;;;;;;;;;-0.70;99.90;;;;;;5089282;28;19924;-72
2022/03/07 01:36:40;;;;;;;;;;;-0.70;99.90;;;;;;5073767;28;19924;-72
2022/03/07 01:39:07;;;;;;;;;;;-0.80;99.80;;;;;;5074246;28;19970;-72
2022/03/07 01:41:34;;;;;;;;;;;-0.70;99.90;;;;;;5082441;28;19924;-72
2022/03/07 01:44:01;;;;;;;;;;;-0.70;99.70;;;;;;5080271;28;20002;-72
2022/03/07 01:46:30;;;;;;;;;;;-0.70;99.90;;;;;;5073222;28;19924;-72
2022/03/07 01:48:56;;;;;;;;;;;-0.80;99.60;;;;;;5089532;28;19977;-72
2022/03/07 01:51:26;;;;;;;;;;;-0.80;99.70;;;;;;5092016;28;19935;-72
2022/03/07 01:53:53;;;;;;;;;;;-0.80;99.70;;;;;;5091147;28;20390;-72
2022/03/07 01:56:20;;;;;;;;;;;-0.70;99.60;;;;;;5076320;28;19924;-72
2022/03/07 01:58:46;;;;;;;;;;;-0.80;99.50;;;;;;5073261;28;19925;-72
2022/03/07 02:01:13;;;;;;;;;;;-0.80;99.60;;;;;;5086959;28;19924;-73
2022/03/07 02:03:40;;;;;;;;;;;-0.80;99.70;;;;;;5084597;28;19924;-73
2022/03/07 02:06:07;;;;;;;;;;;-0.80;99.50;;;;;;5092082;28;20018;-72
2022/03/07 02:08:36;;;;;;;;;;;-0.70;99.50;;;;;;5091870;28;19963;-72
2022/03/07 02:11:05;;;;;;;;;;;-0.70;99.30;;;;;;5092295;28;19969;-72
2022/03/07 02:13:33;;;;;;;;;;;-0.70;99.50;;;;;;5090300;28;19978;-72
2022/03/07 02:16:07;;;;;;;;;;;-0.70;99.40;;;;;;5091809;28;19924;-72
2022/03/07 02:18:35;;;;;;;;;;;-0.70;99.30;;;;;;5089544;28;19928;-72
2022/03/07 02:21:11;;;;;;;;;;;-0.70;99.30;;;;;;5082020;28;19924;-72
2022/03/07 02:23:38;;;;;;;;;;;-0.70;99.30;;;;;;5083194;28;19924;-72
2022/03/07 02:26:11;;;;;;;;;;;-0.80;99.50;;;;;;5073488;28;19975;-72
2022/03/07 02:28:41;;;;;;;;;;;-0.80;99.30;;;;;;5087166;28;20019;-72
2022/03/07 02:31:09;;;;;;;;;;;-0.80;99.50;;;;;;5087227;28;19924;-72
2022/03/07 02:33:38;;;;;;;;;;;-0.80;99.60;;;;;;5082492;28;20262;-72
2022/03/07 02:36:05;;;;;;;;;;;-0.80;99.40;;;;;;5078247;28;19956;-72
2022/03/07 02:38:35;;;;;;;;;;;-0.80;99.50;;;;;;5088291;28;19928;-72
2022/03/07 02:41:01;;;;;;;;;;;-0.80;99.40;;;;;;5085048;28;20449;-72
2022/03/07 02:43:28;;;;;;;;;;;-0.80;99.30;;;;;;5087840;28;20374;-72
2022/03/07 02:45:58;;;;;;;;;;;-0.90;99.40;;;;;;5091367;28;20032;-72
2022/03/07 02:48:25;;;;;;;;;;;-0.90;99.50;;;;;;5073715;28;19959;-72
2022/03/07 02:50:52;;;;;;;;;;;-0.90;99.40;;;;;;5073511;28;20432;-72
2022/03/07 02:53:22;;;;;;;;;;;-0.90;99.30;;;;;;5077877;28;19931;-72
2022/03/07 02:55:49;;;;;;;;;;;-0.90;99.40;;;;;;5072322;28;19928;-73
2022/03/07 02:58:16;;;;;;;;;;;-0.90;99.30;;;;;;5071955;28;20003;-73
2022/03/07 03:00:46;;;;;;;;;;;-0.90;99.30;;;;;;5087294;28;19971;-72
2022/03/07 03:03:13;;;;;;;;;;;-1.00;99.30;;;;;;5078570;28;19928;-73
2022/03/07 03:05:39;;;;;;;;;;;-1.00;99.20;;;;;;5088519;28;19976;-72
2022/03/07 03:08:07;;;;;;;;;;;-1.00;99.30;;;;;;5072150;28;19925;-74
2022/03/07 03:10:33;;;;;;;;;;;-1.00;99.30;;;;;;5086198;28;19924;-73
2022/03/07 03:13:00;;;;;;;;;;;-1.00;99.30;;;;;;5091098;28;20015;-73
2022/03/07 03:15:27;;;;;;;;;;;-1.10;99.20;;;;;;5090287;28;20450;-72
2022/03/07 03:17:53;;;;;;;;;;;-1.10;99.30;;;;;;5071340;28;20514;-70
2022/03/07 03:20:23;;;;;;;;;;;-1.10;99.30;;;;;;5071750;28;20341;-71
2022/03/07 03:22:52;;;;;;;;;;;-1.10;99.30;;;;;;5070934;28;19999;-71
2022/03/07 03:25:19;;;;;;;;;;;-1.10;99.40;;;;;;5071256;28;19960;-71
2022/03/07 03:27:48;;;;;;;;;;;-1.10;99.40;;;;;;5077683;28;20437;-71
2022/03/07 03:30:15;;;;;;;;;;;-1.20;99.40;;;;;;5071895;28;19924;-72
2022/03/07 03:32:42;;;;;;;;;;;-1.20;99.50;;;;;;5073324;28;19925;-72
2022/03/07 03:35:11;;;;;;;;;;;-1.20;99.50;;;;;;5070550;28;19928;-72
2022/03/07 03:37:38;;;;;;;;;;;-1.30;99.50;;;;;;5071642;28;19947;-71
2022/03/07 03:40:11;;;;;;;;;;;-1.30;99.40;;;;;;5082372;28;19925;-71
2022/03/07 03:42:40;;;;;;;;;;;-1.30;99.50;;;;;;5086077;28;19925;-71
2022/03/07 03:45:09;;;;;;;;;;;-1.30;99.70;;;;;;5071537;28;20007;-71
2022/03/07 03:47:40;;;;;;;;;;;-1.20;99.60;;;;;;5083879;28;19923;-71
2022/03/07 03:50:08;;;;;;;;;;;-1.20;99.50;;;;;;5072155;28;19939;-71
2022/03/07 03:52:34;;;;;;;;;;;-1.20;99.50;;;;;;5076773;28;19928;-71
2022/03/07 03:55:07;;;;;;;;;;;-1.30;99.50;;;;;;5078946;28;19929;-71
2022/03/07 03:57:35;;;;;;;;;;;-1.30;99.60;;;;;;5084098;28;19935;-72
2022/03/07 04:00:04;;;;;;;;;;;-1.40;99.60;;;;;;5071263;28;20044;-72
2022/03/07 04:02:31;;;;;;;;;;;-1.40;99.70;;;;;;5070897;28;20031;-71
2022/03/07 04:04:58;;;;;;;;;;;-1.50;99.60;;;;;;5081433;28;19924;-72
2022/03/07 04:07:25;;;;;;;;;;;-1.50;99.70;;;;;;5080012;28;19971;-71
2022/03/07 04:09:52;;;;;;;;;;;-1.60;99.70;;;;;;5080377;28;19925;-72
2022/03/07 04:12:19;;;;;;;;;;;-1.60;99.90;;;;;;5070722;28;19947;-72
2022/03/07 04:14:45;;;;;;;;;;;-1.70;99.90;;;;;;5071389;28;19962;-72
2022/03/07 04:17:12;;;;;;;;;;;-1.80;99.80;;;;;;5082854;28;20037;-71
2022/03/07 04:19:39;;;;;;;;;;;-1.90;99.90;;;;;;5081830;28;20031;-71
2022/03/07 04:22:08;;;;;;;;;;;-1.90;99.90;;;;;;5079737;28;19932;-71
2022/03/07 04:24:35;;;;;;;;;;;-2.10;99.90;;;;;;5083869;28;19928;-71
2022/03/07 04:27:03;;;;;;;;;;;-2.20;99.90;;;;;;5088460;28;19931;-71
2022/03/07 04:29:29;;;;;;;;;;;-2.40;99.90;;;;;;5074253;28;19928;-71
2022/03/07 04:31:56;;;;;;;;;;;-2.70;99.90;;;;;;5075043;28;20613;-71
2022/03/07 04:34:23;;;;;;;;;;;-2.90;99.90;;;;;;5073959;28;20440;-71
2022/03/07 04:36:56;;;;;;;;;;;-3.00;99.90;;;;;;5074475;28;19925;-71
2022/03/07 04:39:23;;;;;;;;;;;-3.10;99.90;;;;;;5088796;28;19946;-71
2022/03/07 04:41:53;;;;;;;;;;;-3.20;99.90;;;;;;5074498;28;19975;-71
2022/03/07 04:44:20;;;;;;;;;;;-3.30;99.90;;;;;;5078118;28;19934;-71
2022/03/07 04:46:46;;;;;;;;;;;-3.30;99.90;;;;;;5074545;28;19925;-71
2022/03/07 04:49:13;;;;;;;;;;;-3.40;99.90;;;;;;5074788;28;19935;-71
2022/03/07 04:51:45;;;;;;;;;;;-3.40;99.90;;;;;;5093046;28;19924;-70
2022/03/07 04:54:12;;;;;;;;;;;-3.50;99.90;;;;;;5083190;28;19931;-70
2022/03/07 04:56:47;;;;;;;;;;;-3.60;99.90;;;;;;5076262;28;19960;-70
2022/03/07 04:59:17;;;;;;;;;;;-3.70;99.90;;;;;;5086953;28;20015;-70
2022/03/07 05:01:44;;;;;;;;;;;-3.80;99.90;;;;;;5074460;28;19982;-70
2022/03/07 05:04:11;;;;;;;;;;;-3.90;99.90;;;;;;5090180;28;19924;-71
2022/03/07 05:06:38;;;;;;;;;;;-3.90;99.90;;;;;;5076894;28;20018;-70
2022/03/07 05:09:04;;;;;;;;;;;-3.90;99.90;;;;;;5093140;28;20007;-71
2022/03/07 05:11:33;;;;;;;;;;;-3.90;99.90;;;;;;5073624;28;19932;-71
2022/03/07 05:14:00;;;;;;;;;;;-3.90;99.90;;;;;;5084814;28;19931;-71
2022/03/07 05:16:29;;;;;;;;;;;-3.90;99.90;;;;;;5074338;28;19929;-70
2022/03/07 05:18:56;;;;;;;;;;;-4.00;99.90;;;;;;5074231;28;19924;-70
2022/03/07 05:21:22;;;;;;;;;;;-4.00;99.90;;;;;;5088963;28;19966;-70
2022/03/07 05:23:49;;;;;;;;;;;-4.00;99.90;;;;;;5083452;28;19924;-70
2022/03/07 05:26:16;;;;;;;;;;;-4.00;99.90;;;;;;5089715;28;20299;-70
2022/03/07 05:28:42;;;;;;;;;;;-3.90;99.90;;;;;;5085484;28;20022;-70
2022/03/07 05:31:12;;;;;;;;;;;-3.90;99.90;;;;;;5076442;28;20023;-70
2022/03/07 05:33:39;;;;;;;;;;;-3.90;99.90;;;;;;5092574;28;20482;-70
2022/03/07 05:36:06;;;;;;;;;;;-3.90;99.90;;;;;;5077066;28;19959;-70
2022/03/07 05:38:34;;;;;;;;;;;-3.90;99.90;;;;;;5088213;28;19934;-70
2022/03/07 05:41:00;;;;;;;;;;;-3.80;99.90;;;;;;5074012;28;19931;-71
2022/03/07 05:43:27;;;;;;;;;;;-3.70;99.90;;;;;;5073478;28;19924;-70
2022/03/07 05:45:54;;;;;;;;;;;-3.70;99.90;;;;;;5074159;28;19967;-70
2022/03/07 05:48:21;;;;;;;;;;;-3.50;99.90;;;;;;5080201;28;19925;-70
2022/03/07 05:50:48;;;;;;;;;;;-3.40;99.90;;;;;;5090537;28;19924;-70
2022/03/07 05:53:16;;;;;;;;;;;-3.20;99.90;;;;;;5081825;28;19932;-70
2022/03/07 05:55:43;;;;;;;;;;;-3.10;99.90;;;;;;5073080;28;20360;-70
2022/03/07 05:58:10;;;;;;;;;;;-3.00;99.90;;;;;;5090794;28;19930;-70
2022/03/07 06:00:37;;;;;;;;;;;-2.80;99.90;;;;;;5089721;28;20015;-70
2022/03/07 06:03:03;;;;;;;;;;;-2.70;99.90;;;;;;5083126;28;19924;-71
2022/03/07 06:05:31;;;;;;;;;;;-2.70;99.90;;;;;;5073245;28;19982;-70
2022/03/07 06:07:58;;;;;;;;;;;-2.60;99.90;;;;;;5088356;28;19924;-71
2022/03/07 06:10:25;;;;;;;;;;;-2.60;99.90;;;;;;5078987;28;20011;-69
2022/03/07 06:12:52;;;;;;;;;;;-2.50;99.90;;;;;;5083368;28;20424;-70
2022/03/07 06:15:19;;;;;;;;;;;-2.40;99.90;;;;;;5081165;28;20371;-69
2022/03/07 06:17:51;;;;;;;;;;;-2.30;99.90;;;;;;5076916;28;19931;-70
2022/03/07 06:20:18;;;;;;;;;;;-2.30;99.90;;;;;;5091862;28;19924;-71
2022/03/07 06:22:45;;;;;;;;;;;-2.20;99.90;;;;;;5078835;28;19963;-70
2022/03/07 06:25:12;;;;;;;;;;;-2.10;99.90;;;;;;5073790;28;19963;-69
2022/03/07 06:27:39;;;;;;;;;;;-2.00;99.90;;;;;;5075861;28;19924;-69
2022/03/07 06:30:06;;;;;;;;;;;-1.90;99.90;;;;;;5091579;28;19928;-70
2022/03/07 06:32:38;;;;;;;;;;;-1.80;99.90;;;;;;5090913;28;20010;-70
2022/03/07 06:35:09;;;;;;;;;;;-1.70;99.90;;;;;;5087509;28;19947;-70
2022/03/07 06:37:36;;;;;;;;;;;-1.50;99.90;;;;;;5072534;28;20015;-70
2022/03/07 06:40:03;;;;;;;;;;;-1.40;99.90;;;;;;5079859;28;20297;-70
2022/03/07 06:42:30;;;;;;;;;;;-1.30;99.90;;;;;;5086913;28;20011;-70
2022/03/07 06:44:57;;;;;;;;;;;-1.20;99.90;;;;;;5085616;28;19969;-69
2022/03/07 06:47:27;;;;;;;;;;;-1.00;99.90;;;;;;5088723;28;19970;-70
2022/03/07 06:49:57;;;;;;;;;;;-0.80;99.80;;;;;;5090772;28;20428;-69
2022/03/07 06:52:24;;;;;;;;;;;-0.30;99.60;;;;;;5086403;28;19979;-70
2022/03/07 06:54:51;;;;;;;;;;;0.30;99.00;;;;;;5072673;28;20011;-70
2022/03/07 06:57:19;;;;;;;;;;;0.80;98.20;;;;;;5071660;28;19956;-70
2022/03/07 06:59:45;;;;;;;;;;;1.00;97.60;;;;;;5075492;28;19928;-70
2022/03/07 07:02:12;;;;;;;;;;;1.20;97.40;;;;;;5090332;28;19976;-70
2022/03/07 07:04:47;;;;;;;;;;;1.30;97.00;;;;;;5087764;28;19931;-70
2022/03/07 07:07:14;;;;;;;;;;;1.40;96.80;;;;;;5083790;28;19967;-70
2022/03/07 07:09:41;;;;;;;;;;;1.60;96.80;;;;;;5073423;28;19999;-71
2022/03/07 07:12:08;;;;;;;;;;;2.10;96.80;;;;;;5086063;28;20260;-72
2022/03/07 07:14:41;;;;;;;;;;;2.30;95.70;;;;;;5078080;28;19969;-71
2022/03/07 07:17:08;;;;;;;;;;;2.30;95.60;;;;;;5079259;28;20513;-71
2022/03/07 07:19:34;;;;;;;;;;;2.30;95.30;;;;;;5074393;28;20020;-71
2022/03/07 07:22:01;;;;;;;;;;;2.20;95.10;;;;;;5086432;28;19924;-71
2022/03/07 07:24:28;;;;;;;;;;;2.30;95.40;;;;;;5089478;28;20006;-71
2022/03/07 07:26:55;;;;;;;;;;;2.40;95.00;;;;;;5088550;28;20554;-71
2022/03/07 07:29:22;;;;;;;;;;;2.30;94.50;;;;;;5089980;28;20565;-71
2022/03/07 07:31:51;;;;;;;;;;;2.20;94.60;;;;;;5081442;28;19970;-71
2022/03/07 07:34:18;;;;;;;;;;;2.20;94.70;;;;;;5074118;28;20014;-72
2022/03/07 07:36:45;;;;;;;;;;;2.10;94.50;;;;;;5090291;28;19928;-71
2022/03/07 07:39:12;;;;;;;;;;;2.10;94.20;;;;;;5084475;28;20418;-71
2022/03/07 07:41:39;;;;;;;;;;;2.20;94.60;;;;;;5090533;28;19924;-71
2022/03/07 07:44:05;;;;;;;;;;;2.60;94.60;;;;;;5088238;28;19950;-72
2022/03/07 07:46:32;;;;;;;;;;;2.40;93.80;;;;;;5070655;28;19947;-72
2022/03/07 07:48:59;;;;;;;;;;;2.30;94.00;;;;;;5078688;28;19924;-72
2022/03/07 07:51:25;;;;;;;;;;;2.20;94.00;;;;;;5090009;28;19935;-72
2022/03/07 07:53:52;;;;;;;;;;;2.10;93.90;;;;;;5072897;28;20015;-72
2022/03/07 07:56:19;;;;;;;;;;;1.90;93.80;;;;;;5071894;28;20421;-72
2022/03/07 07:58:45;;;;;;;;;;;1.90;94.20;;;;;;5075052;28;19928;-71
2022/03/07 08:01:14;;;;;;;;;;;2.00;94.30;;;;;;5086768;28;20011;-72
2022/03/07 08:03:41;;;;;;;;;;;2.30;93.90;;;;;;5088647;28;19963;-71
2022/03/07 08:06:08;;;;;;;;;;;2.10;93.60;;;;;;5089811;28;20348;-71
2022/03/07 08:08:35;;;;;;;;;;;2.30;94.00;;;;;;5081573;28;19928;-72
2022/03/07 08:11:02;;;;;;;;;;;2.40;93.70;;;;;;5071248;28;20012;-72
2022/03/07 08:13:28;;;;;;;;;;;2.50;93.80;;;;;;5070403;28;19932;-71
2022/03/07 08:15:55;;;;;;;;;;;2.30;93.20;;;;;;5088533;28;19934;-72
2022/03/07 08:18:22;;;;;;;;;;;2.20;93.30;;;;;;5082243;28;19924;-72
2022/03/07 08:20:50;;;;;;;;;;;2.20;93.50;;;;;;5070568;28;19931;-72
2022/03/07 08:23:17;;;;;;;;;;;2.40;93.60;;;;;;5084980;28;19924;-72
2022/03/07 08:25:43;;;;;;;;;;;2.50;93.50;;;;;;5082481;28;19924;-72
2022/03/07 08:28:11;;;;;;;;;;;2.80;93.70;;;;;;5079996;28;19924;-73
2022/03/07 08:30:38;;;;;;;;;;;3.00;93.40;;;;;;5085069;28;20318;-72
2022/03/07 08:33:05;;;;;;;;;;;3.00;93.00;;;;;;5087509;28;20325;-72
2022/03/07 08:35:34;;;;;;;;;;;2.80;93.10;;;;;;5089313;28;19935;-72
2022/03/07 08:38:01;;;;;;;;;;;2.60;92.90;;;;;;5087448;28;20063;-72
2022/03/07 08:40:28;;;;;;;;;;;2.40;93.30;;;;;;5085942;28;19939;-72
2022/03/07 08:42:55;;;;;;;;;;;2.60;93.20;;;;;;5076464;28;19928;-72
2022/03/07 08:45:24;;;;;;;;;;;2.50;93.20;;;;;;5087352;28;19931;-73
2022/03/07 08:48:08;;;;;;;;;;;2.80;93.20;;;;;;5088558;28;19932;-72
2022/03/07 08:50:40;;;;;;;;;;;2.70;92.90;;;;;;5088029;28;19989;-72
2022/03/07 08:53:06;;;;;;;;;;;2.70;93.10;;;;;;5088984;28;19930;-73
2022/03/07 08:55:36;;;;;;;;;;;3.00;92.90;;;;;;5077515;28;20338;-73
2022/03/07 08:58:02;;;;;;;;;;;3.20;93.00;;;;;;5069909;28;19960;-73
2022/03/07 09:00:31;;;;;;;;;;;3.20;92.50;;;;;;5082904;28;19981;-73
2022/03/07 09:02:59;;;;;;;;;;;3.70;93.20;;;;;;5087518;28;19960;-73
2022/03/07 09:05:29;;;;;;;;;;;3.90;92.20;;;;;;5078591;28;19932;-73
2022/03/07 09:07:56;;;;;;;;;;;4.00;92.00;;;;;;5083626;28;20034;-73
2022/03/07 09:10:23;;;;;;;;;;;4.10;92.30;;;;;;5074884;28;20007;-73
2022/03/07 09:12:49;;;;;;;;;;;4.30;91.90;;;;;;5075691;28;19931;-73
2022/03/07 09:15:19;;;;;;;;;;;4.60;91.90;;;;;;5087599;28;19935;-73
2022/03/07 09:17:45;;;;;;;;;;;4.90;91.50;;;;;;5079189;28;20282;-73
2022/03/07 09:20:13;;;;;;;;;;;4.90;91.30;;;;;;5090663;28;19924;-72
2022/03/07 09:22:40;;;;;;;;;;;4.90;91.30;;;;;;5092198;28;19924;-72
2022/03/07 09:25:07;;;;;;;;;;;4.60;91.30;;;;;;5082478;28;19925;-72
2022/03/07 09:27:35;;;;;;;;;;;4.50;91.40;;;;;;5073226;28;19924;-72
2022/03/07 09:30:03;;;;;;;;;;;4.30;91.30;;;;;;5074193;28;19982;-73
2022/03/07 09:32:30;;;;;;;;;;;4.30;91.60;;;;;;5074159;28;20401;-72
2022/03/07 09:34:56;;;;;;;;;;;4.10;91.40;;;;;;5073904;28;19931;-72
2022/03/07 09:37:23;;;;;;;;;;;3.90;91.60;;;;;;5074337;28;19925;-71
2022/03/07 09:39:50;;;;;;;;;;;3.90;92.00;;;;;;5086747;28;20007;-72
2022/03/07 09:42:21;;;;;;;;;;;4.40;91.80;;;;;;5073862;28;19971;-73
2022/03/07 09:44:48;;;;;;;;;;;4.80;91.30;;;;;;5087416;28;20402;-73
2022/03/07 09:47:15;;;;;;;;;;;4.70;91.30;;;;;;5072928;28;20008;-73
2022/03/07 09:49:42;;;;;;;;;;;5.20;91.60;;;;;;5073777;28;19924;-73
2022/03/07 09:52:11;;;;;;;;;;;5.60;90.90;;;;;;5088124;28;20007;-73
2022/03/07 09:54:37;;;;;;;;;;;5.80;90.70;;;;;;5083995;28;19966;-73
2022/03/07 09:57:05;;;;;;;;;;;5.80;90.50;;;;;;5091019;28;19924;-73
2022/03/07 09:59:34;;;;;;;;;;;6.00;90.60;;;;;;5073823;28;19924;-74
2022/03/07 10:02:02;;;;;;;;;;;6.00;90.20;;;;;;5072502;28;19978;-74
2022/03/07 10:04:30;;;;;;;;;;;5.90;90.60;;;;;;5074053;28;19931;-73
2022/03/07 10:06:57;;;;;;;;;;;6.20;90.20;;;;;;5072935;28;19978;-73
2022/03/07 10:09:27;;;;;;;;;;;6.00;90.20;;;;;;5073901;28;19931;-73
2022/03/07 10:11:55;;;;;;;;;;;5.80;90.60;;;;;;5086984;28;19985;-73
2022/03/07 10:14:30;;;;;;;;;;;6.30;90.40;;;;;;5075748;28;19934;-73
2022/03/07 10:16:57;;;;;;;;;;;6.00;90.20;;;;;;5080631;28;19931;-72
2022/03/07 10:19:24;;;;;;;;;;;6.10;90.50;;;;;;5089487;28;19991;-73
2022/03/07 10:21:52;;;;;;;;;;;6.30;90.40;;;;;;5081607;28;19931;-73
2022/03/07 10:24:30;;;;;;;;;;;6.70;90.10;;;;;;5079276;28;19979;-73
2022/03/07 10:26:56;;;;;;;;;;;7.00;90.00;;;;;;5085069;28;19927;-73
2022/03/07 10:29:23;;;;;;;;;;;7.00;89.60;;;;;;5089554;28;19924;-73
2022/03/07 10:31:56;;;;;;;;;;;6.80;89.20;;;;;;5085325;28;19951;-73
2022/03/07 10:34:26;;;;;;;;;;;6.60;89.30;;;;;;5072858;28;19932;-73
2022/03/07 10:36:53;;;;;;;;;;;6.40;89.80;;;;;;5078915;28;19932;-73
2022/03/07 10:39:24;;;;;;;;;;;6.80;90.40;;;;;;5081093;28;20016;-74
2022/03/07 10:41:51;;;;;;;;;;;6.80;90.10;;;;;;5072812;28;19973;-74
2022/03/07 10:44:25;;;;;;;;;;;7.00;89.50;;;;;;5072917;28;19925;-75
2022/03/07 10:46:52;;;;;;;;;;;7.40;90.10;;;;;;5071918;28;20446;-75
2022/03/07 10:49:19;;;;;;;;;;;7.90;89.80;;;;;;5075400;28;19924;-74
2022/03/07 10:51:52;;;;;;;;;;;7.80;88.80;;;;;;5084743;28;19928;-75
2022/03/07 10:54:20;;;;;;;;;;;7.90;88.60;;;;;;5077625;28;19931;-74
2022/03/07 10:56:55;;;;;;;;;;;7.50;88.70;;;;;;5086073;28;19932;-74
2022/03/07 10:59:28;;;;;;;;;;;7.50;89.80;;;;;;5086357;28;19924;-74
2022/03/07 11:02:14;;;;;;;;;;;6.90;88.80;;;;;;5089561;28;19928;-74
2022/03/07 11:04:41;;;;;;;;;;;6.50;90.10;;;;;;5071717;28;19951;-75
2022/03/07 11:07:09;;;;;;;;;;;6.80;90.20;;;;;;5071423;28;19925;-74
2022/03/07 11:09:36;;;;;;;;;;;7.30;90.00;;;;;;5072422;28;19929;-74
2022/03/07 11:12:04;;;;;;;;;;;7.40;89.20;;;;;;5076623;28;19934;-74
2022/03/07 11:14:35;;;;;;;;;;;7.80;89.30;;;;;;5084545;28;19971;-74
2022/03/07 11:17:02;;;;;;;;;;;8.20;88.90;;;;;;5082734;28;20446;-74
2022/03/07 11:19:32;;;;;;;;;;;8.90;87.90;;;;;;5086920;28;19932;-75
2022/03/07 11:21:59;;;;;;;;;;;8.90;87.10;;;;;;5088716;28;19942;-74
2022/03/07 11:24:26;;;;;;;;;;;8.50;87.20;;;;;;5084826;28;19954;-75
2022/03/07 11:26:54;;;;;;;;;;;8.20;87.50;;;;;;5070993;28;19924;-74
2022/03/07 11:29:34;;;;;;;;;;;8.30;88.50;;;;;;5071797;28;20061;-75
2022/03/07 11:32:02;;;;;;;;;;;7.90;88.30;;;;;;5071174;28;19924;-74
2022/03/07 11:34:31;;;;;;;;;;;8.00;88.20;;;;;;5082682;28;20031;-74
2022/03/07 11:36:58;;;;;;;;;;;8.20;88.60;;;;;;5079745;28;20397;-74
2022/03/07 11:39:33;;;;;;;;;;;8.50;87.20;;;;;;5079820;28;19986;-74
2022/03/07 11:42:10;;;;;;;;;;;8.00;88.10;;;;;;5071572;28;19952;-74
2022/03/07 11:44:42;;;;;;;;;;;8.20;89.30;;;;;;5084376;28;20573;-74
2022/03/07 11:47:11;;;;;;;;;;;8.50;87.70;;;;;;5078401;28;19931;-74
2022/03/07 11:49:38;;;;;;;;;;;9.30;87.60;;;;;;5085471;28;19931;-74
2022/03/07 11:52:06;;;;;;;;;;;9.60;87.00;;;;;;5079230;28;20014;-75
2022/03/07 11:54:34;;;;;;;;;;;9.40;86.60;;;;;;5078871;28;19924;-74
2022/03/07 11:57:07;;;;;;;;;;;8.80;87.40;;;;;;5075366;28;19954;-74
2022/03/07 11:59:34;;;;;;;;;;;8.70;87.80;;;;;;5089913;28;19974;-74
2022/03/07 12:02:01;;;;;;;;;;;8.70;88.70;;;;;;5075495;28;20019;-73
2022/03/07 12:04:38;;;;;;;;;;;8.90;87.10;;;;;;5071353;28;19924;-74
2022/03/07 12:07:05;;;;;;;;;;;8.60;87.50;;;;;;5071181;28;20322;-74
2022/03/07 12:09:36;;;;;;;;;;;8.40;87.50;;;;;;5086075;28;19924;-74
2022/03/07 12:12:15;;;;;;;;;;;8.30;88.00;;;;;;5074172;28;20010;-74
2022/03/07 12:14:43;;;;;;;;;;;8.30;88.00;;;;;;5075594;28;19924;-74
2022/03/07 12:17:22;;;;;;;;;;;8.50;88.10;;;;;;5079421;28;20306;-74
2022/03/07 12:19:59;;;;;;;;;;;8.60;88.10;;;;;;5079199;28;19975;-76
2022/03/07 12:22:27;;;;;;;;;;;9.20;87.20;;;;;;5079083;28;20420;-75
2022/03/07 12:24:56;;;;;;;;;;;9.60;88.00;;;;;;5090096;28;20014;-74
2022/03/07 12:27:23;;;;;;;;;;;9.00;86.70;;;;;;5079858;28;19930;-74
2022/03/07 12:29:51;;;;;;;;;;;8.70;87.50;;;;;;5084796;28;19925;-74
2022/03/07 12:32:18;;;;;;;;;;;8.80;87.00;;;;;;5071141;28;20413;-74
2022/03/07 12:34:48;;;;;;;;;;;8.60;87.50;;;;;;5078846;28;19971;-74
2022/03/07 12:37:17;;;;;;;;;;;8.70;88.20;;;;;;5078091;28;20006;-71
2022/03/07 12:40:06;;;;;;;;;;;9.20;88.20;;;;;;5076863;28;19924;-73
2022/03/07 12:42:36;;;;;;;;;;;9.70;87.00;;;;;;5074473;28;19924;-72
2022/03/07 12:45:04;;;;;;;;;;;9.70;86.50;;;;;;5092642;28;19931;-72
2022/03/07 12:47:32;;;;;;;;;;;9.40;86.50;;;;;;5079272;28;19924;-72
2022/03/07 12:50:00;;;;;;;;;;;9.50;86.80;;;;;;5089242;28;19925;-72
2022/03/07 12:52:27;;;;;;;;;;;9.40;86.90;;;;;;5074839;28;19928;-72
2022/03/07 12:54:55;;;;;;;;;;;9.30;86.50;;;;;;5076094;28;19933;-74
2022/03/07 12:57:23;;;;;;;;;;;9.50;87.30;;;;;;5087379;28;19924;-74
2022/03/07 12:59:55;;;;;;;;;;;9.20;86.90;;;;;;5074983;28;20011;-74
2022/03/07 13:02:22;;;;;;;;;;;9.20;87.70;;;;;;5088444;28;19924;-74
2022/03/07 13:04:54;;;;;;;;;;;9.30;88.30;;;;;;5073718;28;19924;-74
2022/03/07 13:07:25;;;;;;;;;;;9.30;87.20;;;;;;5097976;28;19978;-75
2022/03/07 13:09:52;;;;;;;;;;;9.10;87.10;;;;;;5082157;28;20393;-73
2022/03/07 13:12:18;;;;;;;;;;;8.80;87.50;;;;;;5081845;28;20011;-73
2022/03/07 13:14:48;;;;;;;;;;;8.30;87.70;;;;;;5089441;28;20573;-73
2022/03/07 13:17:17;;;;;;;;;;;8.40;87.90;;;;;;5074141;28;19924;-73
2022/03/07 13:19:46;;;;;;;;;;;8.30;88.30;;;;;;5088656;28;19960;-73
2022/03/07 13:22:13;;;;;;;;;;;8.20;88.60;;;;;;5080902;28;19930;-73
2022/03/07 13:24:40;;;;;;;;;;;8.10;88.70;;;;;;5074871;28;19980;-74
2022/03/07 13:27:11;;;;;;;;;;;8.10;88.00;;;;;;5084047;28;19929;-73
2022/03/07 13:29:39;;;;;;;;;;;8.30;88.60;;;;;;5083331;28;19924;-74
2022/03/07 13:32:07;;;;;;;;;;;8.70;88.10;;;;;;5089949;28;20049;-73
2022/03/07 13:34:48;;;;;;;;;;;8.90;87.50;;;;;;5087555;28;20286;-74
2022/03/07 13:37:16;;;;;;;;;;;9.20;87.60;;;;;;5073827;28;19936;-75
2022/03/07 13:39:44;;;;;;;;;;;9.00;87.20;;;;;;5073963;28;19931;-74
2022/03/07 13:42:12;;;;;;;;;;;9.50;87.40;;;;;;5075805;28;19930;-75
2022/03/07 13:45:08;;;;;;;;;;;9.70;86.70;;;;;;5091635;28;19931;-74
2022/03/07 13:47:35;;;;;;;;;;;9.80;86.30;;;;;;5077549;28;20489;-74
2022/03/07 13:50:06;;;;;;;;;;;9.30;87.10;;;;;;5071595;28;19931;-74
2022/03/07 13:52:40;;;;;;;;;;;9.10;87.70;;;;;;5085692;28;19934;-74
2022/03/07 13:55:09;;;;;;;;;;;9.10;87.60;;;;;;5085631;28;19932;-74
2022/03/07 13:57:43;;;;;;;;;;;9.10;88.50;;;;;;5089560;28;20337;-74
2022/03/07 14:00:17;;;;;;;;;;;9.60;88.10;;;;;;5091926;28;19928;-75
2022/03/07 14:02:45;;;;;;;;;;;9.80;86.20;;;;;;5075844;28;20020;-74
2022/03/07 14:05:13;;;;;;;;;;;9.80;86.80;;;;;;5088959;28;19925;-74
2022/03/07 14:07:41;;;;;;;;;;;9.80;87.10;;;;;;5085736;28;20011;-74
2022/03/07 14:10:13;;;;;;;;;;;8.70;86.00;;;;;;5088340;28;20014;-74
2022/03/07 14:12:40;;;;;;;;;;;8.50;87.20;;;;;;5091914;28;19982;-74
2022/03/07 14:15:33;;;;;;;;;;;8.00;87.30;;;;;;5073068;28;19928;-74
2022/03/07 14:18:04;;;;;;;;;;;7.90;89.60;;;;;;5072194;28;19929;-74
2022/03/07 14:20:32;;;;;;;;;;;8.50;87.20;;;;;;5088319;28;19924;-74
2022/03/07 14:23:04;;;;;;;;;;;8.60;87.10;;;;;;5079112;28;19939;-74
2022/03/07 14:25:31;;;;;;;;;;;8.60;87.90;;;;;;5091650;28;20010;-74
2022/03/07 14:27:58;;;;;;;;;;;8.30;87.30;;;;;;5081340;28;19955;-74
2022/03/07 14:30:24;;;;;;;;;;;8.50;86.90;;;;;;5073164;28;19925;-74